createdAt,value
2022-11-24T00:02:54.200Z,8.15
2022-11-24T00:05:56.908Z,7.20
2022-11-24T00:08:59.241Z,7.93
2022-11-24T00:12:01.821Z,7.37
2022-11-24T00:15:04.248Z,7.45
2022-11-24T00:18:06.783Z,6.65
2022-11-24T00:21:09.785Z,6.43
2022-11-24T00:24:12.467Z,7.15
2022-11-24T00:27:14.832Z,7.55
2022-11-24T00:30:17.402Z,6.95
2022-11-24T00:33:19.570Z,7.32
2022-11-24T00:36:24.068Z,7.47
2022-11-24T00:39:26.270Z,7.00
2022-11-24T00:42:28.857Z,7.72
2022-11-24T00:45:31.024Z,7.15
2022-11-24T00:48:33.606Z,6.22
2022-11-24T00:51:35.794Z,7.57
2022-11-24T00:54:38.309Z,6.50
2022-11-24T00:57:40.518Z,7.85
2022-11-24T01:00:43.287Z,8.25
2022-11-24T01:03:47.406Z,8.45
2022-11-24T01:06:49.943Z,8.15
2022-11-24T01:09:52.129Z,8.68
2022-11-24T01:12:54.659Z,9.25
2022-11-24T01:15:56.895Z,8.52
2022-11-24T01:19:00.182Z,8.45
2022-11-24T01:22:02.365Z,8.70
2022-11-24T01:25:09.680Z,9.50
2022-11-24T01:28:11.975Z,9.90
2022-11-24T01:31:15.529Z,9.15
2022-11-24T01:34:17.807Z,9.27
2022-11-24T01:37:20.540Z,9.70
2022-11-24T01:40:22.780Z,9.38
2022-11-24T01:43:25.351Z,8.52
2022-11-24T01:46:46.772Z,8.93
2022-11-24T01:49:54.752Z,9.88
2022-11-24T01:52:57.241Z,10.60
2022-11-24T01:55:59.936Z,10.23
2022-11-24T01:59:04.821Z,10.68
2022-11-24T02:02:08.005Z,10.93
2022-11-24T02:05:19.872Z,10.73
2022-11-24T02:08:48.540Z,13.48
2022-11-24T02:11:52.009Z,11.63
2022-11-24T02:14:55.942Z,11.98
2022-11-24T02:17:59.176Z,11.60
2022-11-24T02:21:01.888Z,11.75
2022-11-24T02:24:11.580Z,11.98
2022-11-24T02:27:14.244Z,11.98
2022-11-24T02:30:16.756Z,12.75
2022-11-24T02:33:21.491Z,12.98
2022-11-24T02:36:24.335Z,12.37
2022-11-24T02:39:26.885Z,14.52
2022-11-24T02:42:34.004Z,13.35
2022-11-24T02:45:36.558Z,13.10
2022-11-24T02:48:39.312Z,13.85
2022-11-24T02:51:41.997Z,14.00
2022-11-24T02:54:44.250Z,15.02
2022-11-24T02:57:47.263Z,15.60
2022-11-24T03:00:49.534Z,13.32
2022-11-24T03:03:52.151Z,14.45
2022-11-24T03:06:54.617Z,15.80
2022-11-24T03:09:57.238Z,18.70
2022-11-24T03:12:59.460Z,16.55
2022-11-24T03:16:02.181Z,17.00
2022-11-24T03:19:04.680Z,16.85
2022-11-24T03:22:07.312Z,16.90
2022-11-24T03:25:09.919Z,16.70
2022-11-24T03:28:12.535Z,17.33
2022-11-24T03:31:15.458Z,19.30
2022-11-24T03:34:18.217Z,18.35
2022-11-24T03:37:20.985Z,18.85
2022-11-24T03:40:23.486Z,20.00
2022-11-24T03:43:25.935Z,19.23
2022-11-24T03:46:28.580Z,20.77
2022-11-24T03:49:30.910Z,19.62
2022-11-24T03:52:33.551Z,18.92
2022-11-24T03:55:35.927Z,18.98
2022-11-24T03:58:38.680Z,19.48
2022-11-24T04:01:40.965Z,19.85
2022-11-24T04:04:48.460Z,22.02
2022-11-24T04:07:56.853Z,20.10
2022-11-24T04:10:59.512Z,18.67
2022-11-24T04:14:01.820Z,21.37
2022-11-24T04:17:04.660Z,19.98
2022-11-24T04:20:07.439Z,22.33
2022-11-24T04:23:10.930Z,20.17
2022-11-24T04:26:13.982Z,19.90
2022-11-24T04:29:16.677Z,20.10
2022-11-24T04:32:19.017Z,19.08
2022-11-24T04:35:21.876Z,20.45
2022-11-24T04:39:19.923Z,20.10
2022-11-24T04:41:49.638Z,19.83
2022-11-24T04:44:52.032Z,20.50
2022-11-24T04:47:54.629Z,21.23
2022-11-24T04:50:57.027Z,20.50
2022-11-24T04:53:59.613Z,21.42
2022-11-24T04:57:01.714Z,22.20
2022-11-24T05:00:04.720Z,24.25
2022-11-24T05:03:06.802Z,24.58
2022-11-24T05:06:09.270Z,23.98
2022-11-24T05:09:16.088Z,24.98
2022-11-24T05:12:19.215Z,24.27
2022-11-24T05:15:21.500Z,24.92
2022-11-24T05:18:24.042Z,24.12
2022-11-24T05:21:27.404Z,21.92
2022-11-24T05:24:29.921Z,24.48
2022-11-24T05:27:32.192Z,21.65
2022-11-24T05:30:34.722Z,23.42
2022-11-24T05:33:38.282Z,23.08
2022-11-24T05:37:06.919Z,24.65
2022-11-24T05:40:09.354Z,19.85
2022-11-24T05:43:12.983Z,17.45
2022-11-24T05:46:15.200Z,19.27
2022-11-24T05:49:17.786Z,17.98
2022-11-24T05:52:19.975Z,17.65
2022-11-24T05:55:22.545Z,16.58
2022-11-24T05:58:24.683Z,14.48
2022-11-24T06:01:28.254Z,14.15
2022-11-24T06:04:31.643Z,20.90
2022-11-24T06:07:34.019Z,22.13
2022-11-24T06:10:36.662Z,19.37
2022-11-24T06:13:42.274Z,16.58
2022-11-24T06:16:45.489Z,17.23
2022-11-24T06:19:50.633Z,18.33
2022-11-24T06:22:53.263Z,18.23
2022-11-24T06:25:58.490Z,19.08
2022-11-24T06:29:01.406Z,18.37
2022-11-24T06:32:03.997Z,16.73
2022-11-24T06:35:06.756Z,18.98
2022-11-24T06:38:09.143Z,19.08
2022-11-24T06:41:14.224Z,18.80
2022-11-24T06:44:16.790Z,18.12
2022-11-24T06:47:19.490Z,19.08
2022-11-24T06:50:23.041Z,19.08
2022-11-24T06:53:25.885Z,19.65
2022-11-24T06:56:28.088Z,18.95
2022-11-24T06:59:30.582Z,19.20
2022-11-24T07:02:32.892Z,19.00
2022-11-24T07:05:36.422Z,19.58
2022-11-24T07:08:38.582Z,18.23
2022-11-24T07:11:41.636Z,18.65
2022-11-24T07:14:43.966Z,19.87
2022-11-24T07:17:46.604Z,17.90
2022-11-24T07:20:48.924Z,19.02
2022-11-24T07:23:56.634Z,17.95
2022-11-24T07:26:58.780Z,17.80
2022-11-24T07:30:01.548Z,19.02
2022-11-24T07:33:03.983Z,17.30
2022-11-24T07:36:08.262Z,17.83
2022-11-24T07:39:10.477Z,16.70
2022-11-24T07:42:12.984Z,17.10
2022-11-24T07:45:15.568Z,16.70
2022-11-24T07:48:18.528Z,16.00
2022-11-24T07:51:21.107Z,16.85
2022-11-24T07:54:23.708Z,14.48
2022-11-24T07:57:25.974Z,15.30
2022-11-24T08:00:29.257Z,13.95
2022-11-24T08:03:32.619Z,15.43
2022-11-24T08:06:41.927Z,16.35
2022-11-24T08:09:48.303Z,16.00
2022-11-24T08:12:51.184Z,15.68
2022-11-24T08:15:55.539Z,16.20
2022-11-24T08:18:57.737Z,16.75
2022-11-24T08:22:00.462Z,17.00
2022-11-24T08:25:02.923Z,15.88
2022-11-24T08:28:05.634Z,15.77
2022-11-24T08:31:10.315Z,16.73
2022-11-24T08:34:12.841Z,15.95
2022-11-24T08:37:15.098Z,17.12
2022-11-24T08:40:17.756Z,17.75
2022-11-24T08:43:19.977Z,18.20
2022-11-24T08:46:22.845Z,17.98
2022-11-24T08:49:25.232Z,17.48
2022-11-24T08:52:28.207Z,18.85
2022-11-24T08:55:30.284Z,16.92
2022-11-24T08:58:34.599Z,18.62
2022-11-24T09:01:36.940Z,19.15
2022-11-24T09:04:40.094Z,16.70
2022-11-24T09:07:42.305Z,16.75
2022-11-24T09:10:44.802Z,16.55
2022-11-24T09:13:47.025Z,16.42
2022-11-24T09:16:49.478Z,18.30
2022-11-24T09:19:51.620Z,18.33
2022-11-24T09:22:54.919Z,18.75
2022-11-24T09:26:07.406Z,16.30
2022-11-24T09:29:09.936Z,15.98
2022-11-24T09:32:13.095Z,17.40
2022-11-24T09:35:15.774Z,15.50
2022-11-24T09:38:17.998Z,17.92
2022-11-24T09:41:45.024Z,16.33
2022-11-24T09:45:09.749Z,17.45
2022-11-24T09:48:39.884Z,14.80
2022-11-24T09:51:45.673Z,15.52
2022-11-24T09:54:56.709Z,17.70
2022-11-24T09:58:37.277Z,17.08
2022-11-24T10:01:42.222Z,15.57
2022-11-24T10:04:47.130Z,17.48
2022-11-24T10:08:09.440Z,16.48
2022-11-24T10:11:14.966Z,16.25
2022-11-24T10:14:17.068Z,15.38
2022-11-24T10:17:38.554Z,14.52
2022-11-24T10:20:59.489Z,15.00
2022-11-24T10:24:49.403Z,13.73
2022-11-24T10:28:02.676Z,13.65
2022-11-24T10:31:32.513Z,14.35
2022-11-24T10:34:52.157Z,13.82
2022-11-24T10:38:10.300Z,13.80
2022-11-24T10:41:31.195Z,12.88
2022-11-24T10:44:36.559Z,13.02
2022-11-24T10:47:40.218Z,14.07
2022-11-24T10:50:43.797Z,14.10
2022-11-24T10:53:48.322Z,14.90
2022-11-24T10:56:52.629Z,15.52
2022-11-24T10:59:56.805Z,14.68
2022-11-24T11:03:18.035Z,13.73
2022-11-24T11:06:31.667Z,15.20
2022-11-24T11:09:36.703Z,13.00
2022-11-24T11:12:44.247Z,16.35
2022-11-24T11:15:47.728Z,14.02
2022-11-24T11:18:51.871Z,14.82
2022-11-24T11:22:02.423Z,14.40
2022-11-24T11:25:10.876Z,12.70
2022-11-24T11:28:25.828Z,15.45
2022-11-24T11:31:29.036Z,13.32
2022-11-24T11:34:36.645Z,13.07
2022-11-24T11:37:40.472Z,13.98
2022-11-24T11:40:44.024Z,13.65
2022-11-24T11:43:50.548Z,12.30
2022-11-24T11:46:57.485Z,13.70
2022-11-24T11:50:00.364Z,11.75
2022-11-24T11:53:27.948Z,12.07
2022-11-24T11:56:35.010Z,11.93
2022-11-24T11:59:59.179Z,10.73
2022-11-24T12:03:19.472Z,10.40
2022-11-24T12:06:40.348Z,11.27
2022-11-24T12:10:03.264Z,10.70
2022-11-24T12:13:34.270Z,10.88
2022-11-24T12:16:58.409Z,10.32
2022-11-24T12:20:37.068Z,10.88
2022-11-24T12:24:01.354Z,9.45
2022-11-24T12:27:24.664Z,10.00
2022-11-24T12:30:36.772Z,9.07
2022-11-24T12:34:04.284Z,10.10
2022-11-24T12:37:15.508Z,9.38
2022-11-24T12:40:35.843Z,9.07
2022-11-24T12:43:42.017Z,9.82
2022-11-24T12:46:59.414Z,9.85
2022-11-24T12:50:09.665Z,9.43
2022-11-24T12:53:33.912Z,9.88
2022-11-24T12:56:45.357Z,10.68
2022-11-24T13:00:13.727Z,8.70
2022-11-24T13:03:36.495Z,9.40
2022-11-24T13:06:51.895Z,10.55
2022-11-24T13:10:53.599Z,9.40
2022-11-24T13:14:05.774Z,8.52
2022-11-24T13:17:58.468Z,10.05
2022-11-24T13:21:03.829Z,8.70
2022-11-24T13:24:20.296Z,8.35
2022-11-24T13:27:28.554Z,8.85
2022-11-24T13:30:33.945Z,8.55
2022-11-24T13:33:37.448Z,8.65
2022-11-24T13:36:55.634Z,9.43
2022-11-24T13:40:20.695Z,9.18
2022-11-24T13:43:23.045Z,9.32
2022-11-24T13:47:04.743Z,8.55
2022-11-24T13:50:21.591Z,9.32
2022-11-24T13:53:38.441Z,10.18
2022-11-24T13:56:42.625Z,8.43
2022-11-24T13:59:45.249Z,9.63
2022-11-24T14:02:48.287Z,8.82
2022-11-24T14:05:52.982Z,9.00
2022-11-24T14:08:55.943Z,9.68
2022-11-24T14:12:17.936Z,9.02
2022-11-24T14:15:26.242Z,9.02
2022-11-24T14:18:31.755Z,9.43
2022-11-24T14:21:38.175Z,8.55
2022-11-24T14:24:45.225Z,9.88
2022-11-24T14:27:48.751Z,9.57
2022-11-24T14:30:52.089Z,8.88
2022-11-24T14:34:14.853Z,8.98
2022-11-24T14:37:19.421Z,9.57
2022-11-24T14:40:43.973Z,9.13
2022-11-24T14:43:46.737Z,8.57
2022-11-24T14:46:49.310Z,9.52
2022-11-24T14:49:54.249Z,9.40
2022-11-24T14:52:59.588Z,8.10
2022-11-24T14:56:27.134Z,8.77
2022-11-24T14:59:37.436Z,9.65
2022-11-24T15:03:01.411Z,9.88
2022-11-24T15:06:18.192Z,9.35
2022-11-24T15:09:34.438Z,8.80
2022-11-24T15:12:42.921Z,9.65
2022-11-24T15:16:02.495Z,9.32
2022-11-24T15:19:17.683Z,10.27
2022-11-24T15:22:45.219Z,10.57
2022-11-24T15:25:50.243Z,10.73
2022-11-24T15:28:53.192Z,11.80
2022-11-24T15:31:58.531Z,10.63
2022-11-24T15:35:01.355Z,10.93
2022-11-24T15:38:04.809Z,9.80
2022-11-24T15:41:19.259Z,10.82
2022-11-24T15:44:22.432Z,11.35
2022-11-24T15:47:25.132Z,10.25
2022-11-24T15:50:30.600Z,11.15
2022-11-24T15:53:36.326Z,10.57
2022-11-24T15:56:41.928Z,10.13
2022-11-24T15:59:44.611Z,11.38
2022-11-24T16:02:48.167Z,12.07
2022-11-24T16:05:54.853Z,10.27
2022-11-24T16:08:59.291Z,12.13
2022-11-24T16:12:03.947Z,11.88
2022-11-24T16:15:06.964Z,12.48
2022-11-24T16:18:10.100Z,11.93
2022-11-24T16:21:13.051Z,12.27
2022-11-24T16:24:15.718Z,13.32
2022-11-24T16:27:18.218Z,11.52
2022-11-24T16:30:23.687Z,13.25
2022-11-24T16:33:30.017Z,11.38
2022-11-24T16:36:33.265Z,12.18
2022-11-24T16:39:36.434Z,12.43
2022-11-24T16:42:42.266Z,12.45
2022-11-24T16:45:45.708Z,12.32
2022-11-24T16:48:54.220Z,13.80
2022-11-24T16:51:57.231Z,12.50
2022-11-24T16:55:00.575Z,12.45
2022-11-24T16:58:05.282Z,12.20
2022-11-24T17:01:15.546Z,11.27
2022-11-24T17:04:18.258Z,12.68
2022-11-24T17:07:22.030Z,11.38
2022-11-24T17:10:24.964Z,12.45
2022-11-24T17:13:28.570Z,11.85
2022-11-24T17:16:31.483Z,12.85
2022-11-24T17:19:36.328Z,12.68
2022-11-24T17:22:40.223Z,12.20
2022-11-24T17:25:48.550Z,11.52
2022-11-24T17:28:51.573Z,12.82
2022-11-24T17:31:56.307Z,12.55
2022-11-24T17:35:05.238Z,14.25
2022-11-24T17:38:12.429Z,13.65
2022-11-24T17:41:16.445Z,11.93
2022-11-24T17:44:19.822Z,12.68
2022-11-24T17:47:24.772Z,12.73
2022-11-24T17:50:29.040Z,13.60
2022-11-24T17:53:33.657Z,12.98
2022-11-24T17:56:42.071Z,13.18
2022-11-24T17:59:45.159Z,12.95
2022-11-24T18:02:50.893Z,13.20
2022-11-24T18:05:57.176Z,14.02
2022-11-24T18:09:00.566Z,12.73
2022-11-24T18:12:04.713Z,13.30
2022-11-24T18:15:10.785Z,12.52
2022-11-24T18:18:15.580Z,13.90
2022-11-24T18:21:20.865Z,12.75
2022-11-24T18:24:24.466Z,12.13
2022-11-24T18:27:35.618Z,12.18
2022-11-24T18:30:41.736Z,11.98
2022-11-24T18:33:46.316Z,12.32
2022-11-24T18:36:52.663Z,12.48
2022-11-24T18:39:58.734Z,12.88
2022-11-24T18:43:03.669Z,13.68
2022-11-24T18:46:09.119Z,12.18
2022-11-24T18:49:15.300Z,12.37
2022-11-24T18:52:22.346Z,12.88
2022-11-24T18:55:29.741Z,13.80
2022-11-24T18:58:35.085Z,12.10
2022-11-24T19:01:39.994Z,12.60
2022-11-24T19:04:46.880Z,11.43
2022-11-24T19:07:56.012Z,11.52
2022-11-24T19:11:03.107Z,12.18
2022-11-24T19:14:14.312Z,12.73
2022-11-24T19:17:19.144Z,11.10
2022-11-24T19:20:24.012Z,11.35
2022-11-24T19:23:36.802Z,11.12
2022-11-24T19:26:42.520Z,12.27
2022-11-24T19:29:49.393Z,12.57
2022-11-24T19:32:53.356Z,12.57
2022-11-24T19:36:07.607Z,12.18
2022-11-24T19:39:15.718Z,12.25
2022-11-24T19:42:23.235Z,12.10
2022-11-24T19:45:34.978Z,11.07
2022-11-24T19:48:41.325Z,11.10
2022-11-24T19:51:51.900Z,11.63
2022-11-24T19:54:56.142Z,11.82
2022-11-24T19:58:08.511Z,11.65
2022-11-24T20:01:27.689Z,12.18
2022-11-24T20:04:40.648Z,10.88
2022-11-24T20:11:14.058Z,14.23
2022-11-24T20:14:19.783Z,13.55
2022-11-24T20:17:27.592Z,13.02
2022-11-24T20:20:30.574Z,12.63
2022-11-24T20:23:39.737Z,14.30
2022-11-24T20:26:51.831Z,12.63
2022-11-24T20:33:32.244Z,13.27
2022-11-24T20:36:38.755Z,11.88
2022-11-24T20:39:44.678Z,11.68
2022-11-24T20:42:49.712Z,11.63
2022-11-24T20:45:55.254Z,11.15
2022-11-24T20:49:01.910Z,13.43
2022-11-24T20:52:15.047Z,13.65
2022-11-24T20:55:18.071Z,13.38
2022-11-24T20:58:24.969Z,13.68
2022-11-24T21:01:39.099Z,13.30
2022-11-24T21:04:46.376Z,13.85
2022-11-24T21:07:52.814Z,13.23
2022-11-24T21:11:00.306Z,15.27
2022-11-24T21:14:06.914Z,12.57
2022-11-24T21:17:17.242Z,13.73
2022-11-24T21:20:29.686Z,12.82
2022-11-24T21:23:37.892Z,12.57
2022-11-24T21:26:51.661Z,13.35
2022-11-24T21:29:57.359Z,13.43
2022-11-24T21:33:07.962Z,13.30
2022-11-24T21:36:12.832Z,13.90
2022-11-24T21:39:16.565Z,13.65
2022-11-24T21:42:20.918Z,14.77
2022-11-24T21:45:24.955Z,13.90
2022-11-24T21:48:33.990Z,13.93
2022-11-24T21:51:42.670Z,14.55
2022-11-24T21:54:47.051Z,13.60
2022-11-24T21:57:55.701Z,13.52
2022-11-24T22:01:11.715Z,13.98
2022-11-24T22:04:16.475Z,14.90
2022-11-24T22:07:19.535Z,14.13
2022-11-24T22:10:25.272Z,16.02
2022-11-24T22:13:30.735Z,14.30
2022-11-24T22:16:34.987Z,14.57
2022-11-24T22:19:42.358Z,14.75
2022-11-24T22:25:52.719Z,15.25
2022-11-24T22:29:21.625Z,14.05
2022-11-24T22:32:27.338Z,14.87
2022-11-24T22:35:33.647Z,15.25
2022-11-24T22:38:40.282Z,13.07
2022-11-24T22:41:48.392Z,14.20
2022-11-24T22:44:55.804Z,13.93
2022-11-24T22:48:00.805Z,15.25
2022-11-24T22:51:12.018Z,13.82
2022-11-24T22:54:17.153Z,14.52
2022-11-24T22:57:21.466Z,15.27
2022-11-24T23:00:30.781Z,14.75
2022-11-24T23:03:38.697Z,15.15
2022-11-24T23:06:48.057Z,14.27
2022-11-24T23:09:55.950Z,13.65
2022-11-24T23:13:01.158Z,14.75
2022-11-24T23:16:24.324Z,13.95
2022-11-24T23:19:32.503Z,13.40
2022-11-24T23:22:37.804Z,14.10
2022-11-24T23:26:04.184Z,13.93
2022-11-24T23:29:17.604Z,14.52
2022-11-24T23:35:45.668Z,14.75
2022-11-24T23:38:55.613Z,14.27
2022-11-24T23:42:11.000Z,13.25
2022-11-24T23:45:18.997Z,13.85
2022-11-24T23:48:36.879Z,13.00
2022-11-24T23:51:51.075Z,14.27
2022-11-24T23:54:54.969Z,14.48
2022-11-24T23:58:00.116Z,15.18
